Time;durP1;ratioP1;P1;durP2;ratioP2;P2;SDS_P1;SDS_P2;PMS_P1;PMS_P2;Temp;Humidity;BMP_temperature;BMP_pressure;BME280_temperature;BME280_humidity;BME280_pressure;Samples;Min_cycle;Max_cycle;Signal;HPM_P1;HPM_P2
2021/10/25 00:01:31;;;;;;;5.93;3.92;;;;;;;14.53;42.46;101650.25;5037132;28;20053;-67
2021/10/25 00:03:58;;;;;;;6.50;4.00;;;;;;;14.52;42.22;101656.69;5039461;28;20060;-67
2021/10/25 00:06:25;;;;;;;7.15;3.95;;;;;;;14.49;42.10;101648.72;5030968;28;20049;-66
2021/10/25 00:08:52;;;;;;;5.63;3.42;;;;;;;14.48;42.24;101646.97;5039616;28;20132;-66
2021/10/25 00:11:19;;;;;;;5.30;3.47;;;;;;;14.46;42.12;101649.81;5042080;28;21976;-66
2021/10/25 00:13:46;;;;;;;5.47;3.55;;;;;;;14.45;42.09;101650.78;5045971;28;20049;-66
2021/10/25 00:16:13;;;;;;;5.22;3.67;;;;;;;14.43;42.36;101655.47;5048467;28;20096;-66
2021/10/25 00:18:40;;;;;;;7.57;3.97;;;;;;;14.42;42.08;101650.13;5040029;28;20088;-65
2021/10/25 00:21:06;;;;;;;5.20;3.50;;;;;;;14.40;42.08;101646.66;5028541;28;20440;-65
2021/10/25 00:23:33;;;;;;;6.90;3.42;;;;;;;14.37;42.23;101634.03;5021593;28;20061;-65
2021/10/25 00:26:01;;;;;;;5.20;3.22;;;;;;;14.36;42.18;101645.94;5048464;28;20040;-65
2021/10/25 00:28:27;;;;;;;5.57;3.17;;;;;;;14.34;41.93;101633.34;5042055;28;20046;-65
2021/10/25 00:30:54;;;;;;;5.88;3.58;;;;;;;14.32;41.99;101638.09;5038320;28;20087;-65
2021/10/25 00:33:21;;;;;;;5.13;3.42;;;;;;;14.30;42.27;101635.44;5035441;28;20046;-65
2021/10/25 00:35:47;;;;;;;5.85;3.20;;;;;;;14.28;42.35;101634.69;5045818;28;20095;-65
2021/10/25 00:38:15;;;;;;;6.18;3.75;;;;;;;14.27;42.44;101637.50;5050955;28;20148;-65
2021/10/25 00:40:42;;;;;;;4.78;3.10;;;;;;;14.24;42.48;101635.88;5046080;28;20449;-65
2021/10/25 00:43:09;;;;;;;4.70;3.40;;;;;;;14.22;42.26;101635.09;5050822;28;20061;-65
2021/10/25 00:45:36;;;;;;;5.35;3.35;;;;;;;14.21;42.41;101637.94;5054610;28;20033;-66
2021/10/25 00:48:03;;;;;;;6.75;3.58;;;;;;;14.20;42.32;101644.38;5045943;28;20056;-65
2021/10/25 00:50:30;;;;;;;7.35;3.40;;;;;;;14.16;42.53;101632.81;4986981;28;20072;-65
2021/10/25 00:52:56;;;;;;;5.35;3.35;;;;;;;14.15;42.37;101631.06;5047596;28;20072;-65
2021/10/25 00:55:23;;;;;;;6.13;3.50;;;;;;;14.14;42.45;101636.63;5044568;28;20157;-65
2021/10/25 00:57:52;;;;;;;4.28;3.22;;;;;;;14.12;42.53;101634.00;5042324;28;20103;-65
2021/10/25 01:00:19;;;;;;;5.07;3.08;;;;;;;14.09;42.58;101640.53;5003365;28;20137;-65
2021/10/25 01:02:45;;;;;;;7.70;3.72;;;;;;;14.08;42.27;101632.47;5042244;28;20111;-65
2021/10/25 01:05:12;;;;;;;6.05;3.22;;;;;;;14.05;42.49;101630.81;5040748;28;20114;-65
2021/10/25 01:07:40;;;;;;;5.22;3.40;;;;;;;14.03;42.44;101630.03;5040990;28;20084;-67
2021/10/25 01:10:07;;;;;;;4.53;2.88;;;;;;;14.01;42.43;101633.84;5042153;28;20045;-66
2021/10/25 01:12:35;;;;;;;4.97;3.40;;;;;;;13.98;42.63;101631.34;5039132;28;20088;-65
2021/10/25 01:15:03;;;;;;;5.13;3.40;;;;;;;13.96;42.76;101620.53;5040854;28;20462;-65
2021/10/25 01:17:29;;;;;;;5.80;3.30;;;;;;;13.94;42.80;101618.88;5043020;28;20081;-65
2021/10/25 01:19:56;;;;;;;6.30;3.58;;;;;;;13.93;42.89;101620.72;5049387;28;20073;-65
2021/10/25 01:22:23;;;;;;;5.13;3.33;;;;;;;13.91;43.01;101630.91;5038502;28;20134;-65
2021/10/25 01:24:51;;;;;;;5.72;3.25;;;;;;;13.89;43.01;101632.84;5049086;28;20102;-65
2021/10/25 01:27:20;;;;;;;7.47;4.00;;;;;;;13.88;42.75;101628.38;5049886;28;20057;-65
2021/10/25 01:29:47;;;;;;;5.25;3.63;;;;;;;13.85;42.96;101627.69;5049762;28;20130;-65
2021/10/25 01:32:14;;;;;;;7.30;3.45;;;;;;;13.82;42.74;101628.78;5034368;28;20102;-65
2021/10/25 01:34:41;;;;;;;5.97;3.35;;;;;;;13.77;43.00;101628.22;4998342;28;20054;-65
2021/10/25 01:37:09;;;;;;;6.38;3.75;;;;;;;13.75;42.94;101632.94;5018483;28;20508;-65
2021/10/25 01:39:36;;;;;;;6.03;3.47;;;;;;;13.73;43.22;101629.41;5019687;28;20044;-65
2021/10/25 01:42:04;;;;;;;5.88;3.58;;;;;;;13.70;43.27;101627.75;5043496;28;20048;-65
2021/10/25 01:44:31;;;;;;;4.97;3.58;;;;;;;13.68;43.19;101616.06;5049200;28;20476;-65
2021/10/25 01:46:58;;;;;;;5.93;4.22;;;;;;;13.67;43.06;101621.66;5043212;28;20111;-65
2021/10/25 01:49:25;;;;;;;6.10;3.35;;;;;;;13.66;43.12;101612.59;5045165;28;20048;-65
2021/10/25 01:51:52;;;;;;;5.60;3.25;;;;;;;13.65;43.17;101608.09;5038765;28;20053;-65
2021/10/25 01:54:19;;;;;;;5.95;3.55;;;;;;;13.65;43.30;101609.97;5012281;28;20164;-66
2021/10/25 01:56:45;;;;;;;6.15;3.85;;;;;;;13.62;42.94;101608.31;5040656;28;20080;-65
2021/10/25 01:59:12;;;;;;;5.10;3.40;;;;;;;13.61;43.00;101611.13;5031682;28;20517;-65
2021/10/25 02:01:39;;;;;;;4.53;3.17;;;;;;;13.60;43.06;101614.84;5036411;28;20150;-65
2021/10/25 02:04:06;;;;;;;5.68;3.50;;;;;;;13.59;43.39;101613.06;5018224;28;20048;-65
2021/10/25 02:06:34;;;;;;;5.22;3.60;;;;;;;13.58;43.46;101609.50;5040493;28;20057;-65
2021/10/25 02:09:01;;;;;;;5.50;3.60;;;;;;;13.56;43.31;101599.66;5041738;28;20052;-65
2021/10/25 02:11:28;;;;;;;6.82;3.67;;;;;;;13.56;43.12;101594.22;5040091;28;20045;-65
2021/10/25 02:13:54;;;;;;;4.97;3.38;;;;;;;13.54;42.96;101601.63;5040279;28;20099;-65
2021/10/25 02:16:21;;;;;;;5.95;3.80;;;;;;;13.53;43.29;101598.00;5040318;28;21268;-65
2021/10/25 02:18:48;;;;;;;4.63;3.50;;;;;;;13.52;43.14;101596.25;5035425;28;20052;-65
2021/10/25 02:21:15;;;;;;;6.78;3.70;;;;;;;13.51;43.21;101586.31;5038905;28;20053;-65
2021/10/25 02:23:42;;;;;;;7.28;4.07;;;;;;;13.50;43.30;101595.50;5044353;28;20487;-65
2021/10/25 02:26:09;;;;;;;5.30;3.72;;;;;;;13.47;43.49;101583.91;5039532;28;20523;-65
2021/10/25 02:28:35;;;;;;;6.13;3.80;;;;;;;13.44;43.40;101587.72;5037524;28;20215;-65
2021/10/25 02:31:02;;;;;;;5.50;4.10;;;;;;;13.40;43.79;101582.56;5044222;28;20041;-66
2021/10/25 02:33:29;;;;;;;5.10;3.80;;;;;;;13.39;43.35;101578.97;5041667;28;20613;-65
2021/10/25 02:35:55;;;;;;;6.75;3.90;;;;;;;13.35;43.33;101577.41;5045297;28;20049;-65
2021/10/25 02:38:22;;;;;;;7.63;3.90;;;;;;;13.32;43.46;101574.91;5035599;28;20049;-66
2021/10/25 02:40:50;;;;;;;6.75;3.85;;;;;;;13.28;43.38;101574.22;5039484;28;20128;-65
2021/10/25 02:43:16;;;;;;;6.22;3.58;;;;;;;13.25;43.92;101566.28;5026707;28;20077;-66
2021/10/25 02:45:43;;;;;;;6.53;3.42;;;;;;;13.23;43.67;101562.75;5041470;28;20389;-65
2021/10/25 02:48:11;;;;;;;6.85;3.40;;;;;;;13.21;43.64;101563.84;5042282;28;20691;-65
2021/10/25 02:50:39;;;;;;;5.95;3.95;;;;;;;13.19;43.85;101569.38;5032728;28;20598;-66
2021/10/25 02:53:09;;;;;;;5.47;3.70;;;;;;;13.17;43.87;101563.19;5033639;28;20132;-65
2021/10/25 02:55:36;;;;;;;6.45;3.72;;;;;;;13.17;43.98;101562.31;5039501;28;20507;-65
2021/10/25 02:58:04;;;;;;;5.53;3.63;;;;;;;13.18;43.79;101561.28;5034882;28;20649;-65
2021/10/25 03:00:30;;;;;;;5.47;3.47;;;;;;;13.15;44.41;101556.06;5042086;28;20462;-65
2021/10/25 03:02:57;;;;;;;7.30;3.38;;;;;;;13.16;43.83;101557.81;5042693;28;20063;-65
2021/10/25 03:05:24;;;;;;;4.95;3.08;;;;;;;13.17;43.93;101554.13;5038397;28;20041;-65
2021/10/25 03:07:51;;;;;;;5.80;3.35;;;;;;;13.17;44.21;101557.72;5038860;28;20049;-65
2021/10/25 03:10:18;;;;;;;5.40;3.65;;;;;;;13.18;44.05;101559.44;5042401;28;20447;-65
2021/10/25 03:12:46;;;;;;;4.65;3.28;;;;;;;13.21;43.90;101561.09;5038556;28;20064;-65
2021/10/25 03:15:13;;;;;;;4.45;3.15;;;;;;;13.21;43.86;101553.81;5043001;28;20048;-65
2021/10/25 03:17:40;;;;;;;6.97;3.60;;;;;;;13.21;44.07;101558.38;5039102;28;20045;-65
2021/10/25 03:20:07;;;;;;;5.40;3.33;;;;;;;13.22;44.08;101555.56;5022598;28;20050;-65
2021/10/25 03:22:34;;;;;;;4.95;3.00;;;;;;;13.23;43.83;101556.44;5044253;28;20399;-65
2021/10/25 03:25:01;;;;;;;5.32;3.30;;;;;;;13.24;44.09;101559.06;5036708;28;20068;-65
2021/10/25 03:27:28;;;;;;;5.78;3.60;;;;;;;13.24;44.20;101556.34;5029748;28;20111;-65
2021/10/25 03:29:55;;;;;;;4.95;3.33;;;;;;;13.24;43.79;101556.34;5033829;28;20048;-65
2021/10/25 03:32:21;;;;;;;4.63;3.58;;;;;;;13.25;43.87;101551.75;5040156;28;20080;-65
2021/10/25 03:34:49;;;;;;;6.32;3.63;;;;;;;13.25;44.08;101549.91;5042205;28;20076;-65
2021/10/25 03:37:17;;;;;;;5.70;3.30;;;;;;;13.25;44.03;101547.19;5045373;28;20076;-65
2021/10/25 03:39:47;;;;;;;4.90;3.00;;;;;;;13.25;43.84;101547.19;5004170;28;20053;-65
2021/10/25 03:42:28;;;;;;;6.28;3.72;;;;;;;13.25;44.01;101549.91;5029284;28;20077;-65
2021/10/25 03:47:33;;;;;;;5.22;3.13;;;;;;;13.22;44.02;101549.22;5031170;28;20045;-65
2021/10/25 03:50:23;;;;;;;6.57;3.70;;;;;;;13.20;44.34;101538.41;5035509;28;20099;-65
2021/10/25 04:30:21;;;;;;;6.40;3.30;;;;;;;13.09;44.52;101529.19;5033728;28;20142;-65
2021/10/25 04:32:48;;;;;;;7.18;3.55;;;;;;;13.09;44.29;101526.47;5040173;28;20429;-65
2021/10/25 04:35:15;;;;;;;5.80;3.20;;;;;;;13.10;44.23;101525.47;5041187;28;20115;-66
2021/10/25 04:37:42;;;;;;;5.32;3.25;;;;;;;13.10;44.39;101520.00;5043278;28;20512;-65
2021/10/25 04:40:09;;;;;;;4.70;3.10;;;;;;;13.11;44.50;101527.22;5041555;28;20377;-65
2021/10/25 04:42:36;;;;;;;4.60;3.17;;;;;;;13.09;44.31;101524.59;5019581;28;20049;-65
2021/10/25 04:45:03;;;;;;;5.30;3.20;;;;;;;13.10;44.19;101522.72;5034608;28;20136;-65
2021/10/25 04:47:30;;;;;;;5.20;3.33;;;;;;;13.09;44.42;101526.47;5043924;28;20103;-65
2021/10/25 04:49:57;;;;;;;5.93;3.20;;;;;;;13.09;44.04;101521.88;5041540;28;20091;-65
2021/10/25 04:52:24;;;;;;;5.47;3.40;;;;;;;13.08;44.26;101527.44;5046483;28;20068;-65
2021/10/25 04:54:50;;;;;;;5.47;3.10;;;;;;;13.07;44.48;101526.56;5039049;28;20128;-65
2021/10/25 04:57:17;;;;;;;5.97;3.50;;;;;;;13.06;44.37;101522.06;5043936;28;20072;-65
2021/10/25 04:59:45;;;;;;;5.05;3.28;;;;;;;13.04;44.29;101523.16;5043812;28;20052;-65
2021/10/25 05:02:12;;;;;;;7.15;4.00;;;;;;;13.04;44.42;101523.16;5047876;28;20045;-65
2021/10/25 05:04:39;;;;;;;5.30;3.35;;;;;;;13.03;44.35;101515.94;5038805;28;20056;-65
2021/10/25 05:07:06;;;;;;;5.70;3.10;;;;;;;13.01;44.28;101516.06;5037847;28;20045;-66
2021/10/25 05:09:33;;;;;;;5.75;3.47;;;;;;;13.01;44.55;101516.06;5035181;28;20060;-66
2021/10/25 05:12:00;;;;;;;6.32;3.30;;;;;;;13.00;44.67;101511.59;5044707;28;20637;-66
2021/10/25 05:14:26;;;;;;;4.32;3.08;;;;;;;12.99;44.29;101501.66;5042235;28;20041;-67
2021/10/25 05:16:53;;;;;;;7.03;4.00;;;;;;;12.98;44.46;101508.09;5043485;28;20059;-66
2021/10/25 05:19:20;;;;;;;5.32;3.35;;;;;;;12.96;44.52;101510.03;5046924;28;20533;-68
2021/10/25 05:21:47;;;;;;;5.30;3.20;;;;;;;12.95;44.48;101508.28;5045511;28;20052;-66
2021/10/25 05:24:14;;;;;;;5.32;3.30;;;;;;;12.94;44.54;101511.97;5046171;28;20045;-66
2021/10/25 05:26:42;;;;;;;6.05;3.13;;;;;;;12.95;44.59;101514.59;5038130;28;20056;-66
2021/10/25 05:29:08;;;;;;;5.22;3.47;;;;;;;12.92;44.84;101519.41;5039443;28;20049;-66
2021/10/25 05:31:35;;;;;;;6.28;3.33;;;;;;;12.92;44.29;101519.41;5038686;28;20075;-66
2021/10/25 05:34:02;;;;;;;5.50;3.65;;;;;;;12.92;44.83;101513.94;5046121;28;20476;-66
2021/10/25 05:36:29;;;;;;;4.70;3.05;;;;;;;12.91;44.70;101515.81;5043229;28;20037;-66
2021/10/25 05:38:56;;;;;;;6.13;3.45;;;;;;;12.90;44.59;101519.50;5048151;28;20048;-66
2021/10/25 05:41:24;;;;;;;5.47;3.20;;;;;;;12.91;44.79;101523.09;5043189;28;20075;-65
2021/10/25 05:43:51;;;;;;;6.07;3.17;;;;;;;12.91;44.72;101517.66;5047472;28;20500;-66
2021/10/25 05:46:18;;;;;;;6.32;3.30;;;;;;;12.92;44.48;101516.69;5041853;28;20443;-66
2021/10/25 05:48:45;;;;;;;6.15;3.58;;;;;;;12.91;44.50;101518.53;5044153;28;20723;-66
2021/10/25 05:51:12;;;;;;;5.47;3.70;;;;;;;12.91;44.42;101514.91;5042051;28;20459;-66
2021/10/25 05:53:39;;;;;;;6.10;3.20;;;;;;;12.91;44.36;101512.19;5040210;28;20047;-66
2021/10/25 05:56:06;;;;;;;4.95;3.30;;;;;;;12.91;44.63;101517.66;5042588;28;20050;-66
2021/10/25 05:58:33;;;;;;;6.03;3.45;;;;;;;12.90;44.35;101516.78;5033206;28;20041;-66
2021/10/25 06:01:06;;;;;;;5.03;3.10;;;;;;;12.90;44.41;101518.63;5047183;28;20140;-66
2021/10/25 06:03:34;;;;;;;7.38;3.50;;;;;;;12.90;44.69;101518.63;5046089;28;20075;-66
2021/10/25 06:06:01;;;;;;;6.03;3.65;;;;;;;12.89;44.37;101514.13;5042195;28;20072;-65
2021/10/25 06:08:29;;;;;;;5.07;3.47;;;;;;;12.88;44.67;101509.66;5024995;28;20056;-66
2021/10/25 06:10:56;;;;;;;5.85;3.40;;;;;;;12.88;44.51;101512.38;5039929;28;20091;-65
2021/10/25 06:13:40;;;;;;;5.82;3.55;;;;;;;12.87;44.49;101506.06;5039189;28;20057;-65
2021/10/25 06:18:41;;;;;;;7.80;3.40;;;;;;;12.83;44.57;101514.56;5047545;28;20052;-65
2021/10/25 06:21:08;;;;;;;5.88;3.13;;;;;;;12.83;44.40;101503.66;5044915;28;20095;-65
2021/10/25 06:23:35;;;;;;;5.45;3.60;;;;;;;12.82;44.56;101510.06;5037828;28;20090;-66
2021/10/25 06:26:03;;;;;;;6.85;4.35;;;;;;;12.81;44.56;101511.03;5044134;28;20353;-65
2021/10/25 06:28:31;;;;;;;5.10;3.10;;;;;;;12.82;44.50;101516.41;5031662;28;20057;-65
2021/10/25 06:31:04;;;;;;;6.93;3.55;;;;;;;12.82;44.47;101507.34;5035848;28;20132;-67
2021/10/25 06:33:51;;;;;;;5.47;3.92;;;;;;;12.78;44.86;101509.38;5038392;28;20068;-67
2021/10/25 06:36:19;;;;;;;7.60;4.13;;;;;;;12.77;45.07;101512.22;5035396;28;20077;-65
2021/10/25 06:41:18;;;;;;;5.78;3.83;;;;;;;12.76;44.53;101514.09;5043456;28;20041;-65
2021/10/25 06:43:45;;;;;;;5.40;3.83;;;;;;;12.76;45.15;101519.53;5039284;28;20370;-65
2021/10/25 06:46:12;;;;;;;6.65;4.13;;;;;;;12.77;44.71;101513.09;5047235;28;20052;-65
2021/10/25 06:48:39;;;;;;;6.22;4.00;;;;;;;12.76;44.81;101519.53;5038217;28;20840;-65
2021/10/25 06:51:06;;;;;;;6.60;3.90;;;;;;;12.76;44.84;101511.38;5029229;28;20114;-65
2021/10/25 06:53:33;;;;;;;5.85;4.07;;;;;;;12.77;44.95;101513.09;5047085;28;20384;-65
2021/10/25 06:56:00;;;;;;;7.95;4.00;;;;;;;12.76;45.13;101519.53;5042235;28;20510;-65
2021/10/25 06:58:27;;;;;;;6.63;4.13;;;;;;;12.77;44.82;101517.66;5034824;28;20080;-65
2021/10/25 07:00:58;;;;;;;6.57;4.35;;;;;;;12.77;44.91;101523.09;5040330;28;20053;-65
2021/10/25 07:03:26;;;;;;;5.47;3.63;;;;;;;12.78;44.74;101527.59;5040570;28;20080;-65
2021/10/25 07:05:53;;;;;;;6.55;3.78;;;;;;;12.76;44.96;101526.84;5028534;28;20625;-65
2021/10/25 07:08:21;;;;;;;6.60;3.92;;;;;;;12.77;44.96;101534.88;5037252;28;20045;-66
2021/10/25 07:10:48;;;;;;;5.32;3.83;;;;;;;12.74;44.93;101526.94;5044480;28;20054;-65
2021/10/25 07:13:16;;;;;;;7.00;4.60;;;;;;;12.74;44.99;101545.13;5037994;28;20053;-66
2021/10/25 07:15:49;;;;;;;5.22;3.70;;;;;;;12.72;45.03;101539.78;5038505;28;20446;-65
2021/10/25 07:18:38;;;;;;;7.68;4.18;;;;;;;12.70;44.97;101544.44;5047201;28;20087;-65
2021/10/25 08:07:44;;;;;;;8.55;4.18;;;;;;;12.70;45.74;101540.84;5050671;28;20052;-66
2021/10/25 08:10:15;;;;;;;6.82;4.15;;;;;;;12.73;45.65;101549.69;5050860;28;20057;-66
2021/10/25 08:12:48;;;;;;;7.03;4.28;;;;;;;12.76;45.77;101545.91;5050148;28;20114;-66
2021/10/25 08:15:23;;;;;;;;;;;;;;;12.55;46.11;101545.44;5041298;28;20088;-66
2021/10/25 08:17:54;;;;;;;6.75;4.38;;;;;;;12.77;45.78;101545.78;5047643;28;19921;-65
2021/10/25 08:20:21;;;;;;;6.63;4.30;;;;;;;12.82;45.69;101551.81;5054801;28;20045;-65
2021/10/25 08:22:48;;;;;;;7.93;4.63;;;;;;;12.84;45.71;101554.47;5068057;28;20533;-66
2021/10/25 08:25:16;;;;;;;7.28;4.47;;;;;;;12.86;45.85;101549.75;5066325;28;20403;-66
2021/10/25 08:27:43;;;;;;;8.02;4.68;;;;;;;12.87;45.78;101548.78;5065052;28;20053;-66
2021/10/25 08:30:12;;;;;;;6.38;4.43;;;;;;;12.90;45.84;101551.31;5021804;28;20902;-66
2021/10/25 08:33:01;;;;;;;7.70;4.63;;;;;;;12.90;45.54;101552.19;5040582;28;20048;-66
2021/10/25 08:35:39;;;;;;;6.10;4.20;;;;;;;12.94;45.65;101552.84;5061596;28;20059;-66
2021/10/25 08:40:51;;;;;;;7.15;4.50;;;;;;;13.00;46.03;101551.59;5056704;28;20041;-66
2021/10/25 08:43:18;;;;;;;6.53;4.30;;;;;;;13.04;45.87;101551.28;5060790;28;20045;-66
2021/10/25 08:45:50;;;;;;;8.38;4.30;;;;;;;13.07;45.91;101556.53;5069267;28;20053;-66
2021/10/25 08:48:18;;;;;;;6.80;4.35;;;;;;;13.10;46.20;101550.00;5062065;28;20080;-67
2021/10/25 08:50:44;;;;;;;7.40;4.38;;;;;;;13.13;45.69;101550.72;5055610;28;20500;-66
2021/10/25 08:53:11;;;;;;;7.25;4.07;;;;;;;13.16;46.15;101553.25;5065087;28;20079;-65
2021/10/25 08:55:38;;;;;;;6.00;4.50;;;;;;;13.20;46.42;101543.88;5060594;28;20594;-65
2021/10/25 08:58:06;;;;;;;7.18;4.70;;;;;;;13.24;46.06;101552.72;5064127;28;20157;-65
2021/10/25 09:00:40;;;;;;;7.57;4.72;;;;;;;13.29;46.10;101545.09;5059471;28;20040;-65
2021/10/25 09:03:07;;;;;;;6.72;4.63;;;;;;;13.32;46.19;101544.91;5069648;28;20045;-66
2021/10/25 09:05:35;;;;;;;7.13;4.43;;;;;;;13.35;46.29;101544.69;5063557;28;20564;-65
2021/10/25 09:08:11;;;;;;;5.22;3.88;;;;;;;13.42;46.34;101546.03;5046807;28;20047;-66
2021/10/25 09:10:41;;;;;;;8.65;4.32;;;;;;;13.44;46.54;101543.19;5064017;28;20044;-65
2021/10/25 09:13:10;;;;;;;8.23;4.05;;;;;;;13.48;46.19;101544.75;5064539;28;20075;-66
2021/10/25 09:15:41;;;;;;;6.30;4.13;;;;;;;13.52;46.28;101535.34;5062539;28;20166;-65
2021/10/25 09:18:13;;;;;;;5.55;4.22;;;;;;;13.57;46.08;101535.94;5067636;28;20049;-65
2021/10/25 09:20:48;;;;;;;5.55;3.83;;;;;;;13.59;46.30;101532.09;5045627;28;20053;-65
2021/10/25 09:23:17;;;;;;;6.20;4.00;;;;;;;13.62;46.21;101531.91;5066010;28;20500;-65
2021/10/25 09:25:49;;;;;;;8.70;3.90;;;;;;;13.66;46.34;101525.28;5043414;28;20571;-65
2021/10/25 09:28:24;;;;;;;5.32;3.58;;;;;;;13.70;46.38;101529.50;5062896;28;20048;-65
2021/10/25 09:30:54;;;;;;;5.72;3.65;;;;;;;13.76;46.50;101530.06;5056428;28;21936;-65
2021/10/25 09:33:23;;;;;;;6.82;4.05;;;;;;;13.78;46.04;101526.25;5037528;28;20049;-65
2021/10/25 09:36:06;;;;;;;6.35;4.57;;;;;;;13.86;46.30;101526.59;5061150;28;20078;-65
2021/10/25 09:49:38;;;;;;;5.55;3.60;;;;;;;14.19;46.50;101522.47;4968249;28;20097;-65
2021/10/25 09:52:07;;;;;;;7.78;3.72;;;;;;;14.27;46.55;101515.47;4964750;28;20047;-65
2021/10/25 09:54:35;;;;;;;5.97;3.40;;;;;;;14.35;46.66;101520.38;4968938;28;20733;-65
2021/10/25 09:57:22;;;;;;;4.47;3.10;;;;;;;14.44;46.79;101517.03;4963067;28;20557;-65
2021/10/25 09:59:52;;;;;;;5.43;3.35;;;;;;;14.53;46.67;101523.69;4962714;28;20055;-66
2021/10/25 10:02:21;;;;;;;7.55;3.53;;;;;;;14.62;46.88;101525.75;4968252;28;20113;-64
2021/10/25 10:04:55;;;;;;;5.93;3.80;;;;;;;14.70;46.70;101515.13;4949062;28;20134;-66
2021/10/25 10:07:21;;;;;;;5.32;3.53;;;;;;;14.79;46.80;101511.72;4962021;28;20057;-66
2021/10/25 10:09:55;;;;;;;5.32;3.33;;;;;;;14.91;46.46;101524.44;4964094;28;20043;-64
2021/10/25 10:12:24;;;;;;;5.28;3.33;;;;;;;14.97;46.23;101521.28;4964874;28;20045;-64
2021/10/25 10:14:55;;;;;;;5.03;3.50;;;;;;;15.07;46.10;101522.31;4966241;28;20050;-64
2021/10/25 10:17:38;;;;;;;4.32;3.20;;;;;;;15.15;45.76;101513.56;4965925;28;20051;-64
2021/10/25 10:20:14;;;;;;;5.90;3.40;;;;;;;15.24;45.98;101515.56;4964016;28;20110;-64
2021/10/25 10:22:47;;;;;;;4.85;3.13;;;;;;;15.32;45.70;101504.91;4966099;28;20081;-64
2021/10/25 10:25:38;;;;;;;5.25;3.08;;;;;;;15.41;45.67;101514.28;4963075;28;20513;-64
2021/10/25 10:28:08;;;;;;;5.13;2.78;;;;;;;15.47;46.09;101508.38;5056418;28;20110;-63
2021/10/25 10:30:49;;;;;;;4.63;2.67;;;;;;;15.56;45.78;101510.44;5063896;28;20068;-64
2021/10/25 10:33:16;;;;;;;4.50;2.83;;;;;;;15.62;46.04;101509.06;5054010;28;20396;-64
2021/10/25 10:35:45;;;;;;;5.35;3.00;;;;;;;15.70;45.45;101504.75;5050335;28;20098;-64
2021/10/25 10:38:13;;;;;;;4.43;2.85;;;;;;;15.79;45.26;101503.16;5063535;28;20441;-64
2021/10/25 10:40:43;;;;;;;4.43;2.80;;;;;;;15.85;45.69;101502.69;5046559;28;20082;-64
2021/10/25 10:43:25;;;;;;;5.82;2.92;;;;;;;15.94;45.34;101496.47;5061146;28;20072;-64
2021/10/25 10:46:11;;;;;;;4.53;2.78;;;;;;;16.01;45.02;101494.13;5042692;28;20048;-64
2021/10/25 10:48:41;;;;;;;5.35;2.80;;;;;;;16.05;45.68;101487.41;5062961;28;20052;-64
2021/10/25 10:51:14;;;;;;;4.75;2.90;;;;;;;16.13;45.38;101491.28;5064232;28;20090;-64
2021/10/25 10:53:57;;;;;;;4.57;2.70;;;;;;;16.20;44.55;101484.31;5067838;28;20052;-64
2021/10/25 10:56:28;;;;;;;4.50;2.70;;;;;;;16.23;45.17;101477.69;5051251;28;20501;-64
2021/10/25 11:01:32;;;;;;;4.68;2.58;;;;;;;16.34;44.79;101475.84;5060491;28;20049;-64
2021/10/25 11:04:01;;;;;;;6.75;2.80;;;;;;;16.41;45.10;101475.34;5055790;28;20033;-64
2021/10/25 11:06:37;;;;;;;3.80;2.58;;;;;;;16.49;44.59;101470.09;5061235;28;20056;-64
2021/10/25 11:09:09;;;;;;;4.35;2.42;;;;;;;16.56;44.75;101463.13;5055844;28;20106;-64
2021/10/25 11:11:39;;;;;;;5.70;2.85;;;;;;;16.62;45.33;101468.16;5062006;28;20049;-64
2021/10/25 11:14:13;;;;;;;4.47;2.72;;;;;;;16.70;45.08;101463.78;5035670;28;20068;-65
2021/10/25 11:16:52;;;;;;;4.30;2.55;;;;;;;16.78;45.10;101465.88;5063561;28;20048;-64
2021/10/25 11:19:19;;;;;;;3.88;2.42;;;;;;;16.88;45.17;101471.47;5067346;28;20051;-65
2021/10/25 11:21:51;;;;;;;5.03;2.80;;;;;;;16.99;45.19;101474.16;5065958;28;20055;-65
2021/10/25 11:24:20;;;;;;;3.95;2.33;;;;;;;17.08;45.27;101470.66;5061730;28;20048;-65
2021/10/25 11:26:56;;;;;;;5.68;2.50;;;;;;;17.22;44.20;101469.47;5041237;28;20080;-65
2021/10/25 11:29:33;;;;;;;3.67;2.40;;;;;;;17.29;44.59;101468.84;5036052;28;20438;-66
2021/10/25 11:32:11;;;;;;;4.38;2.42;;;;;;;17.38;44.04;101475.41;5061478;28;20055;-66
2021/10/25 11:34:44;;;;;;;4.50;2.67;;;;;;;17.42;44.37;101464.03;5056961;28;20507;-66
2021/10/25 11:37:12;;;;;;;4.43;2.53;;;;;;;17.47;43.81;101461.75;5046092;28;20561;-66
2021/10/25 11:39:44;;;;;;;5.72;2.70;;;;;;;17.54;43.73;101456.63;5059416;28;20076;-66
2021/10/25 11:42:12;;;;;;;3.92;2.67;;;;;;;17.57;43.52;101450.00;5066979;28;20160;-66
2021/10/25 11:44:41;;;;;;;4.68;2.72;;;;;;;17.61;43.91;101454.22;5054954;28;20079;-67
2021/10/25 11:47:22;;;;;;;4.30;2.50;;;;;;;17.66;43.01;101443.72;5055595;28;20075;-67
2021/10/25 11:49:50;;;;;;;4.93;2.95;;;;;;;17.67;43.57;101442.72;5052773;28;20064;-66
2021/10/25 11:52:17;;;;;;;4.03;2.22;;;;;;;17.70;43.38;101439.72;5063108;28;20106;-66
2021/10/25 11:54:48;;;;;;;5.40;2.75;;;;;;;17.72;43.17;101427.59;5042226;28;20045;-66
2021/10/25 11:57:16;;;;;;;4.78;2.63;;;;;;;17.76;43.66;101436.44;5059889;28;20132;-66
2021/10/25 11:59:53;;;;;;;3.88;2.50;;;;;;;17.79;42.66;101436.16;5059134;28;20232;-66
2021/10/25 12:02:22;;;;;;;4.88;2.60;;;;;;;17.80;43.06;101435.16;5044240;28;20094;-66
2021/10/25 12:04:49;;;;;;;4.32;2.70;;;;;;;17.81;43.01;101431.41;5055222;28;20040;-66
2021/10/25 12:07:16;;;;;;;4.13;2.10;;;;;;;17.83;43.34;101443.13;5060989;28;20045;-67
2021/10/25 12:09:42;;;;;;;4.03;2.72;;;;;;;17.86;43.07;101427.25;5066462;28;20053;-66
2021/10/25 12:12:19;;;;;;;4.50;2.53;;;;;;;17.88;42.84;101427.97;5066937;28;20072;-67
2021/10/25 12:14:47;;;;;;;5.28;2.80;;;;;;;17.90;42.74;101422.34;5052682;28;20052;-67
2021/10/25 12:17:16;;;;;;;5.25;2.78;;;;;;;17.91;43.05;101428.72;5040562;28;20056;-66
2021/10/25 12:19:44;;;;;;;4.50;2.20;;;;;;;17.94;42.78;101425.72;5043220;28;20102;-67
2021/10/25 12:22:19;;;;;;;4.20;2.63;;;;;;;17.97;42.70;101425.41;5057076;28;20081;-67
2021/10/25 12:24:48;;;;;;;4.45;2.08;;;;;;;17.97;42.77;101423.53;5063670;28;20079;-66
2021/10/25 12:27:18;;;;;;;4.25;2.42;;;;;;;17.98;42.61;101419.78;5061510;28;20119;-66
2021/10/25 12:29:45;;;;;;;4.03;2.00;;;;;;;18.00;42.53;101411.41;5061227;28;20067;-66
2021/10/25 12:32:13;;;;;;;4.00;1.90;;;;;;;18.01;42.84;101405.78;5065005;28;20459;-66
2021/10/25 12:34:54;;;;;;;5.32;2.53;;;;;;;18.05;41.82;101401.75;5064704;28;20063;-66
2021/10/25 12:37:27;;;;;;;3.65;2.22;;;;;;;18.07;42.84;101404.34;5059922;28;20049;-66
2021/10/25 12:39:55;;;;;;;3.63;2.30;;;;;;;18.09;42.58;101394.09;5060595;28;20048;-67
2021/10/25 12:42:23;;;;;;;4.13;2.22;;;;;;;18.13;42.52;101398.31;5059401;28;20128;-67
2021/10/25 12:44:54;;;;;;;4.00;2.30;;;;;;;18.15;42.53;101388.91;5061013;28;20052;-66
2021/10/25 12:47:25;;;;;;;3.40;2.08;;;;;;;18.19;41.96;101393.16;5058556;28;20553;-67
2021/10/25 12:49:55;;;;;;;2.72;1.73;;;;;;;18.22;42.28;101394.72;5060974;28;20053;-66
2021/10/25 12:52:26;;;;;;;3.67;2.20;;;;;;;18.22;42.69;101390.09;5065871;28;20072;-66
2021/10/25 12:54:59;;;;;;;3.78;2.17;;;;;;;18.27;41.76;101394.34;5059598;28;20084;-66
2021/10/25 12:57:31;;;;;;;4.65;2.63;;;;;;;18.25;41.89;101387.09;5065774;28;20101;-66
2021/10/25 13:00:09;;;;;;;4.15;2.25;;;;;;;18.28;41.82;101388.69;5062317;28;20094;-66
2021/10/25 13:02:48;;;;;;;3.75;2.17;;;;;;;18.31;41.85;101384.78;5044004;28;20549;-67
2021/10/25 13:05:34;;;;;;;5.10;2.20;;;;;;;18.30;41.75;101385.78;5060893;28;20040;-66
2021/10/25 13:08:04;;;;;;;2.92;1.98;;;;;;;18.33;42.51;101385.53;5043039;28;20045;-66
2021/10/25 13:10:39;;;;;;;4.50;2.10;;;;;;;18.36;42.17;101379.75;5059659;28;20476;-66
2021/10/25 13:13:08;;;;;;;4.45;2.35;;;;;;;18.37;42.00;101386.97;5064665;28;20728;-67
2021/10/25 13:15:37;;;;;;;4.40;2.53;;;;;;;18.38;42.03;101384.09;5060170;28;20049;-66
2021/10/25 13:18:07;;;;;;;4.35;2.53;;;;;;;18.40;42.52;101387.56;5044648;28;20048;-66
2021/10/25 13:20:36;;;;;;;4.05;2.00;;;;;;;18.42;42.20;101385.56;5065128;28;20114;-66
2021/10/25 13:23:04;;;;;;;4.68;2.10;;;;;;;18.43;42.05;101384.56;5041647;28;20070;-66